createdAt,value
2019-01-09T00:01:58.784Z,0.70
2019-01-09T00:04:27.579Z,0.70
2019-01-09T00:06:56.549Z,0.70
2019-01-09T00:09:25.207Z,1.87
2019-01-09T00:11:53.935Z,1.07
2019-01-09T00:14:22.855Z,1.50
2019-01-09T00:16:51.451Z,0.90
2019-01-09T00:19:20.031Z,0.83
2019-01-09T00:21:48.725Z,0.80
2019-01-09T00:24:17.656Z,0.70
2019-01-09T00:26:46.500Z,0.70
2019-01-09T00:29:15.285Z,0.60
2019-01-09T00:31:43.869Z,0.80
2019-01-09T00:34:12.426Z,0.70
2019-01-09T00:36:41.005Z,0.60
2019-01-09T00:39:09.577Z,0.60
2019-01-09T00:41:38.607Z,0.70
2019-01-09T00:44:07.600Z,0.67
2019-01-09T00:46:36.315Z,0.70
2019-01-09T00:49:05.279Z,0.60
2019-01-09T00:51:33.882Z,0.70
2019-01-09T00:54:02.402Z,0.60
2019-01-09T00:56:31.085Z,0.60
2019-01-09T00:59:00.014Z,0.60
2019-01-09T01:01:28.652Z,0.70
2019-01-09T01:04:09.650Z,0.60
2019-01-09T01:06:46.981Z,0.63
2019-01-09T01:09:35.206Z,0.60
2019-01-09T01:12:41.739Z,0.73
2019-01-09T01:15:36.924Z,0.70
2019-01-09T01:18:30.922Z,0.60
2019-01-09T01:21:05.400Z,0.60
2019-01-09T01:24:01.142Z,0.60
2019-01-09T01:26:50.891Z,0.70
2019-01-09T01:29:48.277Z,0.70
2019-01-09T01:32:51.813Z,0.77
2019-01-09T01:35:29.494Z,0.70
2019-01-09T01:38:28.703Z,0.67
2019-01-09T01:41:09.594Z,0.60
2019-01-09T01:43:50.022Z,0.67
2019-01-09T01:46:27.587Z,0.77
2019-01-09T01:49:30.942Z,0.60
2019-01-09T01:52:17.445Z,0.60
2019-01-09T01:55:03.837Z,0.70
2019-01-09T01:57:53.558Z,0.80
2019-01-09T02:00:28.257Z,0.70
2019-01-09T02:03:11.310Z,0.90
2019-01-09T02:05:43.070Z,0.60
2019-01-09T02:08:29.855Z,0.70
2019-01-09T02:11:19.771Z,0.80
2019-01-09T02:14:09.615Z,0.70
2019-01-09T02:16:55.804Z,0.70
2019-01-09T02:19:33.563Z,0.70
2019-01-09T02:22:14.373Z,0.73
2019-01-09T02:24:48.842Z,0.70
2019-01-09T02:27:26.070Z,0.70
2019-01-09T02:30:06.741Z,0.87
2019-01-09T02:32:35.302Z,0.60
2019-01-09T02:35:04.223Z,0.60
2019-01-09T02:37:32.749Z,0.60
2019-01-09T02:40:01.310Z,0.60
2019-01-09T02:42:29.921Z,0.60
2019-01-09T02:44:58.773Z,0.70
2019-01-09T02:47:27.328Z,0.70
2019-01-09T02:49:55.938Z,0.63
2019-01-09T02:52:24.535Z,0.77
2019-01-09T02:54:53.405Z,0.80
2019-01-09T02:57:21.949Z,0.73
2019-01-09T02:59:50.470Z,0.53
2019-01-09T03:02:19.063Z,0.60
2019-01-09T03:04:47.628Z,0.70
2019-01-09T03:07:16.149Z,0.60
2019-01-09T03:09:44.718Z,0.60
2019-01-09T03:12:13.233Z,0.70
2019-01-09T03:14:41.807Z,0.70
2019-01-09T03:17:10.365Z,0.60
2019-01-09T03:19:38.894Z,0.60
2019-01-09T03:22:07.398Z,0.60
2019-01-09T03:24:35.993Z,0.80
2019-01-09T03:27:04.582Z,0.60
2019-01-09T03:29:33.170Z,0.73
2019-01-09T03:32:01.709Z,0.70
2019-01-09T03:34:30.314Z,0.70
2019-01-09T03:36:58.834Z,0.60
2019-01-09T03:39:27.771Z,0.70
2019-01-09T03:41:56.313Z,0.70
2019-01-09T03:44:24.911Z,0.60
2019-01-09T03:46:53.431Z,0.60
2019-01-09T03:49:22.005Z,0.80
2019-01-09T03:51:50.706Z,0.50
2019-01-09T03:54:19.289Z,0.60
2019-01-09T03:56:47.833Z,0.73
2019-01-09T03:59:16.425Z,0.60
2019-01-09T04:01:45.029Z,0.60
2019-01-09T04:04:13.624Z,0.70
2019-01-09T04:06:42.434Z,0.73
2019-01-09T04:09:11.149Z,0.60
2019-01-09T04:11:40.091Z,0.70
2019-01-09T04:14:08.990Z,0.73
2019-01-09T04:16:37.525Z,0.60
2019-01-09T04:19:06.217Z,0.70
2019-01-09T04:21:34.783Z,0.60
2019-01-09T04:24:03.341Z,1.00
2019-01-09T04:26:32.866Z,0.70
2019-01-09T04:29:01.427Z,0.60
2019-01-09T04:31:29.975Z,0.83
2019-01-09T04:33:58.658Z,0.70
2019-01-09T04:36:27.157Z,0.67
2019-01-09T04:38:55.775Z,0.70
2019-01-09T04:41:24.305Z,0.60
2019-01-09T04:43:52.831Z,0.80
2019-01-09T04:46:21.416Z,0.83
2019-01-09T04:48:49.972Z,0.77
2019-01-09T04:51:18.850Z,0.77
2019-01-09T04:53:47.426Z,0.60
2019-01-09T04:56:15.934Z,0.73
2019-01-09T04:58:44.490Z,0.60
2019-01-09T05:01:13.037Z,0.80
2019-01-09T05:03:41.551Z,0.70
2019-01-09T05:06:10.065Z,0.60
2019-01-09T05:08:39.054Z,0.70
2019-01-09T05:11:08.048Z,0.67
2019-01-09T05:13:36.606Z,0.70
2019-01-09T05:16:05.492Z,0.60
2019-01-09T05:18:34.065Z,0.70
2019-01-09T05:21:02.969Z,0.70
2019-01-09T05:23:31.540Z,0.77
2019-01-09T05:26:00.047Z,0.60
2019-01-09T05:28:28.661Z,0.60
2019-01-09T05:30:57.210Z,0.87
2019-01-09T05:33:25.818Z,0.70
2019-01-09T05:35:54.381Z,0.70
2019-01-09T05:38:23.361Z,0.90
2019-01-09T05:40:51.963Z,0.70
2019-01-09T05:43:20.608Z,0.70
2019-01-09T05:45:49.147Z,0.70
2019-01-09T05:48:17.928Z,0.80
2019-01-09T05:50:46.437Z,0.73
2019-01-09T05:53:15.058Z,0.70
2019-01-09T05:55:43.607Z,0.70
2019-01-09T05:58:12.159Z,0.90
2019-01-09T06:00:40.696Z,0.90
2019-01-09T06:03:09.281Z,0.90
2019-01-09T06:05:37.785Z,0.90
2019-01-09T06:08:06.349Z,0.90
2019-01-09T06:10:35.181Z,0.93
2019-01-09T06:13:03.762Z,1.00
2019-01-09T06:15:32.285Z,0.90
2019-01-09T06:18:00.861Z,0.80
2019-01-09T06:20:29.390Z,1.07
2019-01-09T06:22:57.978Z,0.90
2019-01-09T06:25:26.885Z,0.90
2019-01-09T06:27:55.838Z,0.90
2019-01-09T06:30:24.441Z,0.97
2019-01-09T06:32:53.043Z,1.10
2019-01-09T06:35:21.569Z,1.00
2019-01-09T06:37:50.182Z,0.80
2019-01-09T06:40:18.696Z,0.90
2019-01-09T06:42:47.295Z,0.90
2019-01-09T06:45:15.876Z,0.93
2019-01-09T06:47:44.780Z,1.00
2019-01-09T06:50:17.112Z,0.90
2019-01-09T06:52:45.663Z,0.80
2019-01-09T06:55:14.178Z,0.97
2019-01-09T06:57:42.750Z,1.07
2019-01-09T07:00:11.762Z,0.80
2019-01-09T07:02:40.811Z,0.83
2019-01-09T07:05:09.637Z,0.97
2019-01-09T07:07:38.238Z,1.00
2019-01-09T07:10:08.089Z,1.00
2019-01-09T07:12:36.722Z,1.20
2019-01-09T07:15:11.339Z,1.00
2019-01-09T07:17:37.367Z,0.73
2019-01-09T07:20:06.048Z,1.63
2019-01-09T07:22:34.612Z,0.90
2019-01-09T07:25:03.210Z,0.90
2019-01-09T07:27:31.787Z,0.90
2019-01-09T07:30:00.479Z,0.90
2019-01-09T07:32:29.118Z,1.00
2019-01-09T07:34:58.686Z,0.70
2019-01-09T07:37:27.715Z,0.80
2019-01-09T07:39:56.496Z,0.90
2019-01-09T07:42:26.430Z,1.30
2019-01-09T07:44:54.990Z,0.97
2019-01-09T07:47:23.599Z,0.70
2019-01-09T07:49:52.161Z,0.97
2019-01-09T07:52:21.627Z,0.70
2019-01-09T07:54:50.220Z,0.70
2019-01-09T07:57:20.056Z,0.80
2019-01-09T07:59:48.665Z,0.83
2019-01-09T08:02:17.704Z,1.00
2019-01-09T08:04:46.310Z,0.80
2019-01-09T08:07:14.908Z,0.70
2019-01-09T08:09:43.570Z,0.70
2019-01-09T08:12:12.189Z,0.67
2019-01-09T08:14:40.746Z,0.70
2019-01-09T08:17:09.504Z,0.80
2019-01-09T08:19:38.051Z,0.90
2019-01-09T08:22:06.961Z,0.70
2019-01-09T08:24:35.626Z,0.87
2019-01-09T08:27:04.252Z,1.00
2019-01-09T08:29:33.407Z,0.70
2019-01-09T08:32:01.979Z,0.80
2019-01-09T08:34:30.590Z,0.80
2019-01-09T08:36:59.532Z,0.70
2019-01-09T08:39:28.261Z,0.80
2019-01-09T08:41:57.234Z,0.77
2019-01-09T08:44:26.088Z,0.60
2019-01-09T08:46:54.688Z,0.70
2019-01-09T08:49:23.626Z,0.70
2019-01-09T08:51:52.186Z,0.60
2019-01-09T08:54:20.868Z,0.67
2019-01-09T08:56:49.471Z,0.60
2019-01-09T08:59:18.036Z,0.60
2019-01-09T09:01:46.634Z,0.60
2019-01-09T09:04:15.240Z,0.70
2019-01-09T09:06:44.975Z,0.70
2019-01-09T09:09:13.813Z,0.70
2019-01-09T09:11:43.006Z,0.60
2019-01-09T09:14:12.296Z,0.60
2019-01-09T09:16:40.902Z,0.70
2019-01-09T09:19:09.623Z,0.67
2019-01-09T09:21:38.249Z,0.60
2019-01-09T09:24:07.015Z,0.50
2019-01-09T09:26:36.822Z,0.60
2019-01-09T09:29:05.523Z,0.70
2019-01-09T09:31:34.165Z,0.70
2019-01-09T09:34:03.180Z,0.70
2019-01-09T09:36:31.836Z,0.70
2019-01-09T09:39:00.450Z,0.53
2019-01-09T09:41:29.952Z,0.70
2019-01-09T09:43:58.592Z,0.60
2019-01-09T09:46:27.194Z,0.60
2019-01-09T09:48:55.922Z,0.70
2019-01-09T09:51:24.473Z,0.50
2019-01-09T09:53:53.167Z,0.60
2019-01-09T09:56:22.427Z,0.67
2019-01-09T09:58:51.216Z,0.80
2019-01-09T10:01:19.894Z,0.63
2019-01-09T10:03:48.852Z,0.70
2019-01-09T10:06:17.945Z,0.70
2019-01-09T10:08:46.580Z,0.60
2019-01-09T10:11:15.508Z,0.60
2019-01-09T10:13:44.519Z,0.60
2019-01-09T10:16:13.986Z,0.50
2019-01-09T10:18:42.647Z,0.50
2019-01-09T10:21:11.205Z,0.50
2019-01-09T10:23:39.810Z,0.53
2019-01-09T10:26:08.382Z,0.70
2019-01-09T10:28:36.996Z,0.70
2019-01-09T10:31:05.600Z,0.70
2019-01-09T10:33:34.732Z,0.70
2019-01-09T10:36:03.403Z,0.70
2019-01-09T10:38:37.973Z,0.70
2019-01-09T10:41:02.354Z,0.70
2019-01-09T10:43:31.058Z,0.70
2019-01-09T10:45:59.749Z,0.60
2019-01-09T10:48:28.475Z,0.60
2019-01-09T10:50:57.199Z,0.60
2019-01-09T10:53:25.887Z,0.63
2019-01-09T10:55:54.627Z,0.70
2019-01-09T10:58:23.366Z,0.53
2019-01-09T11:00:52.363Z,0.70
2019-01-09T11:03:21.488Z,0.60
2019-01-09T11:05:50.094Z,0.70
2019-01-09T11:08:19.413Z,0.60
2019-01-09T11:10:48.471Z,0.70
2019-01-09T11:13:17.272Z,0.50
2019-01-09T11:15:46.138Z,0.70
2019-01-09T11:18:14.879Z,0.60
2019-01-09T11:20:43.999Z,0.60
2019-01-09T11:23:13.613Z,0.70
2019-01-09T11:25:42.453Z,0.73
2019-01-09T11:28:11.333Z,0.70
2019-01-09T11:30:40.009Z,0.70
2019-01-09T11:33:08.933Z,0.70
2019-01-09T11:35:37.910Z,0.60
2019-01-09T11:38:08.397Z,0.60
2019-01-09T11:40:37.180Z,0.70
2019-01-09T11:43:06.182Z,0.73
2019-01-09T11:45:35.737Z,0.80
2019-01-09T11:48:04.492Z,0.60
2019-01-09T11:50:33.073Z,0.70
2019-01-09T11:53:02.450Z,0.90
2019-01-09T11:55:31.408Z,0.70
2019-01-09T11:58:00.093Z,0.70
2019-01-09T12:00:29.364Z,0.63
2019-01-09T12:02:58.125Z,0.63
2019-01-09T12:05:27.828Z,0.80
2019-01-09T12:07:56.679Z,0.80
2019-01-09T12:10:30.237Z,0.70
2019-01-09T12:12:58.814Z,0.60
2019-01-09T12:15:27.959Z,0.80
2019-01-09T12:17:57.158Z,0.70
2019-01-09T12:20:26.429Z,0.97
2019-01-09T12:22:55.094Z,0.70
2019-01-09T12:25:24.525Z,0.77
2019-01-09T12:27:53.527Z,0.80
2019-01-09T12:30:24.756Z,1.00
2019-01-09T12:32:53.481Z,0.90
2019-01-09T12:35:22.136Z,0.80
2019-01-09T12:37:51.290Z,0.80
2019-01-09T12:40:21.270Z,0.73
2019-01-09T12:42:50.014Z,0.87
2019-01-09T12:45:19.043Z,0.67
2019-01-09T12:47:47.774Z,0.70
2019-01-09T12:50:19.729Z,0.80
2019-01-09T12:52:48.437Z,0.77
2019-01-09T12:55:17.116Z,0.80
2019-01-09T12:57:46.020Z,0.80
2019-01-09T13:00:23.380Z,0.70
2019-01-09T13:02:52.498Z,0.70
2019-01-09T13:05:21.264Z,0.90
2019-01-09T13:07:49.933Z,1.00
2019-01-09T13:10:18.638Z,0.63
2019-01-09T13:12:47.481Z,0.67
2019-01-09T13:15:17.265Z,0.90
2019-01-09T13:17:46.030Z,1.00
2019-01-09T13:20:16.334Z,1.10
2019-01-09T13:22:48.594Z,1.07
2019-01-09T13:25:17.261Z,0.90
2019-01-09T13:27:46.076Z,0.73
2019-01-09T13:30:20.117Z,0.70
2019-01-09T13:32:52.037Z,1.00
2019-01-09T13:35:22.162Z,0.70
2019-01-09T13:37:50.962Z,0.83
2019-01-09T13:40:20.418Z,0.70
2019-01-09T13:42:49.376Z,0.73
2019-01-09T13:45:21.587Z,0.80
2019-01-09T13:47:52.231Z,0.90
2019-01-09T13:50:21.021Z,0.77
2019-01-09T13:52:50.058Z,0.80
2019-01-09T13:55:18.667Z,0.80
2019-01-09T13:57:47.338Z,0.80
2019-01-09T14:00:21.035Z,1.13
2019-01-09T14:02:50.337Z,0.80
2019-01-09T14:05:19.394Z,0.80
2019-01-09T14:07:48.249Z,0.60
2019-01-09T14:10:22.258Z,0.77
2019-01-09T14:12:50.898Z,0.70
2019-01-09T14:15:21.434Z,0.70
2019-01-09T14:17:50.482Z,0.70
2019-01-09T14:20:19.234Z,0.83
2019-01-09T14:22:48.257Z,0.83
2019-01-09T14:25:17.845Z,0.70
2019-01-09T14:27:46.974Z,0.90
2019-01-09T14:30:23.750Z,0.60
2019-01-09T14:32:52.549Z,0.90
2019-01-09T14:35:21.220Z,0.77
2019-01-09T14:37:50.198Z,0.90
2019-01-09T14:40:19.981Z,0.70
2019-01-09T14:42:53.009Z,1.03
2019-01-09T14:45:22.297Z,1.10
2019-01-09T14:47:50.886Z,0.80
2019-01-09T14:50:22.072Z,0.90
2019-01-09T14:52:51.351Z,0.90
2019-01-09T14:55:20.219Z,1.00
2019-01-09T14:57:49.005Z,0.80
2019-01-09T15:00:20.434Z,0.80
2019-01-09T15:02:49.683Z,0.80
2019-01-09T15:05:18.502Z,0.70
2019-01-09T15:07:49.081Z,0.67
2019-01-09T15:10:23.384Z,0.80
2019-01-09T15:12:52.203Z,0.80
2019-01-09T15:15:21.742Z,0.90
2019-01-09T15:17:50.442Z,0.90
2019-01-09T15:20:21.939Z,0.63
2019-01-09T15:22:50.574Z,0.70
2019-01-09T15:25:19.432Z,0.77
2019-01-09T15:27:49.250Z,0.70
2019-01-09T15:30:26.352Z,1.10
2019-01-09T15:32:55.234Z,0.80
2019-01-09T15:35:23.999Z,0.80
2019-01-09T15:37:52.909Z,0.90
2019-01-09T15:40:23.655Z,0.80
2019-01-09T15:42:52.651Z,0.70
2019-01-09T15:45:22.116Z,0.90
2019-01-09T15:47:50.985Z,1.20
2019-01-09T15:50:24.735Z,1.10
2019-01-09T15:52:54.351Z,0.87
2019-01-09T15:55:23.834Z,0.93
2019-01-09T15:57:54.189Z,0.80
2019-01-09T16:00:29.205Z,0.90
2019-01-09T16:02:57.912Z,0.90
2019-01-09T16:05:26.513Z,0.93
2019-01-09T16:07:55.728Z,0.90
2019-01-09T16:10:24.983Z,0.80
2019-01-09T16:12:53.872Z,0.70
2019-01-09T16:15:22.589Z,0.83
2019-01-09T16:17:51.358Z,0.70
2019-01-09T16:20:22.237Z,0.70
2019-01-09T16:22:52.181Z,0.80
2019-01-09T16:25:21.483Z,0.70
2019-01-09T16:27:51.241Z,0.80
2019-01-09T16:30:34.171Z,0.80
2019-01-09T16:33:06.884Z,1.00
2019-01-09T16:35:37.557Z,1.10
2019-01-09T16:38:07.117Z,0.80
2019-01-09T16:40:35.982Z,0.87
2019-01-09T16:43:05.049Z,0.80
2019-01-09T16:45:34.377Z,0.73
2019-01-09T16:48:04.134Z,0.90
2019-01-09T16:50:34.155Z,0.87
2019-01-09T16:53:03.796Z,1.00
2019-01-09T16:55:32.452Z,0.90
2019-01-09T16:58:01.507Z,1.20
2019-01-09T17:00:36.763Z,1.20
2019-01-09T17:03:06.429Z,1.10
2019-01-09T17:05:36.139Z,1.10
2019-01-09T17:08:06.343Z,1.10
2019-01-09T17:10:35.136Z,1.60
2019-01-09T17:13:05.202Z,1.37
2019-01-09T17:15:35.238Z,1.23
2019-01-09T17:18:04.921Z,1.10
2019-01-09T17:20:34.939Z,1.40
2019-01-09T17:23:04.541Z,1.20
2019-01-09T17:25:33.380Z,1.30
2019-01-09T17:28:02.627Z,1.13
2019-01-09T17:30:32.297Z,1.17
2019-01-09T17:33:00.993Z,1.23
2019-01-09T17:35:29.836Z,1.27
2019-01-09T17:37:59.873Z,1.17
2019-01-09T17:40:28.848Z,1.20
2019-01-09T17:42:58.875Z,1.30
2019-01-09T17:45:28.221Z,1.40
2019-01-09T17:47:57.154Z,1.27
2019-01-09T17:50:31.583Z,1.20
2019-01-09T17:53:00.749Z,1.47
2019-01-09T17:55:30.995Z,1.60
2019-01-09T17:58:00.439Z,1.40
2019-01-09T18:00:36.660Z,1.37
2019-01-09T18:03:05.656Z,1.30
2019-01-09T18:05:34.573Z,1.50
2019-01-09T18:08:10.373Z,1.60
2019-01-09T18:10:35.607Z,1.60
2019-01-09T18:13:04.495Z,1.63
2019-01-09T18:15:34.450Z,1.70
2019-01-09T18:18:04.619Z,1.97
2019-01-09T18:20:33.389Z,1.87
2019-01-09T18:23:02.689Z,1.80
2019-01-09T18:25:32.735Z,2.00
2019-01-09T18:28:02.000Z,2.20
2019-01-09T18:30:36.894Z,2.20
2019-01-09T18:33:08.933Z,1.90
2019-01-09T18:35:44.214Z,1.70
2019-01-09T18:38:23.423Z,2.27
2019-01-09T18:41:00.410Z,1.87
2019-01-09T18:43:35.795Z,1.80
2019-01-09T18:46:37.760Z,1.77
2019-01-09T18:49:25.539Z,1.67
2019-01-09T18:52:06.734Z,1.40
2019-01-09T18:54:35.585Z,1.73
2019-01-09T18:57:07.654Z,1.73
2019-01-09T18:59:37.256Z,1.90
2019-01-09T19:02:06.872Z,1.70
2019-01-09T19:04:36.129Z,1.90
2019-01-09T19:07:06.426Z,1.73
2019-01-09T19:09:36.088Z,1.20
2019-01-09T19:12:08.446Z,1.40
2019-01-09T19:14:40.580Z,1.27
2019-01-09T19:17:10.248Z,1.30
2019-01-09T19:19:39.749Z,1.50
2019-01-09T19:22:09.372Z,1.53
2019-01-09T19:24:38.922Z,1.47
2019-01-09T19:27:08.221Z,1.53
2019-01-09T19:29:38.557Z,1.80
2019-01-09T19:32:07.871Z,2.13
2019-01-09T19:34:37.896Z,2.00
2019-01-09T19:37:06.760Z,2.13
2019-01-09T19:39:35.628Z,2.50
2019-01-09T19:42:04.344Z,2.50
2019-01-09T19:44:33.222Z,2.27
2019-01-09T19:47:03.371Z,2.50
2019-01-09T19:49:33.741Z,2.40
2019-01-09T19:52:02.813Z,2.40
2019-01-09T19:54:32.232Z,2.43
2019-01-09T19:57:01.527Z,2.93
2019-01-09T19:59:31.227Z,2.20
2019-01-09T20:02:00.104Z,1.97
2019-01-09T20:04:28.832Z,1.70
2019-01-09T20:06:57.610Z,1.90
2019-01-09T20:09:27.019Z,1.50
2019-01-09T20:11:56.175Z,2.07
2019-01-09T20:14:29.146Z,1.50
2019-01-09T20:16:58.056Z,1.40
2019-01-09T20:19:28.609Z,1.77
2019-01-09T20:21:58.081Z,1.33
2019-01-09T20:24:27.606Z,1.50
2019-01-09T20:26:57.746Z,1.23
2019-01-09T20:29:27.108Z,1.33
2019-01-09T20:31:56.079Z,1.47
2019-01-09T20:34:25.455Z,1.53
2019-01-09T20:36:54.413Z,1.00
2019-01-09T20:39:24.379Z,1.50
2019-01-09T20:41:54.215Z,1.60
2019-01-09T20:44:23.236Z,1.50
2019-01-09T20:46:52.423Z,1.80
2019-01-09T20:49:22.689Z,1.30
2019-01-09T20:51:51.381Z,1.60
2019-01-09T20:54:20.118Z,1.50
2019-01-09T20:56:51.198Z,1.60
2019-01-09T20:59:20.479Z,1.23
2019-01-09T21:01:50.398Z,1.30
2019-01-09T21:04:23.710Z,1.23
2019-01-09T21:06:55.361Z,1.20
2019-01-09T21:09:24.414Z,1.13
2019-01-09T21:11:56.184Z,1.17
2019-01-09T21:14:27.468Z,1.30
2019-01-09T21:16:57.556Z,1.03
2019-01-09T21:19:28.203Z,1.17
2019-01-09T21:22:00.522Z,1.00
2019-01-09T21:24:31.072Z,1.10
2019-01-09T21:27:01.603Z,1.40
2019-01-09T21:29:33.645Z,1.40
2019-01-09T21:32:03.883Z,1.23
2019-01-09T21:34:34.545Z,1.30
2019-01-09T21:37:04.145Z,1.30
2019-01-09T21:39:34.999Z,1.30
2019-01-09T21:42:04.609Z,1.30
2019-01-09T21:44:34.044Z,1.40
2019-01-09T21:47:03.395Z,1.33
2019-01-09T21:49:32.754Z,0.90
2019-01-09T21:52:02.110Z,1.30
2019-01-09T21:54:32.086Z,1.80
2019-01-09T21:57:01.729Z,1.33
2019-01-09T21:59:30.395Z,0.90
2019-01-09T22:01:59.607Z,1.20
2019-01-09T22:04:29.069Z,1.10
2019-01-09T22:06:58.282Z,1.40
2019-01-09T22:09:27.417Z,1.20
2019-01-09T22:12:02.385Z,1.20
2019-01-09T22:14:28.427Z,1.33
2019-01-09T22:16:57.673Z,1.57
2019-01-09T22:19:28.281Z,1.17
2019-01-09T22:21:57.346Z,1.20
2019-01-09T22:24:26.022Z,1.30
2019-01-09T22:26:54.860Z,1.23
2019-01-09T22:29:24.058Z,0.90
2019-01-09T22:31:52.688Z,1.27
2019-01-09T22:34:21.320Z,1.00
2019-01-09T22:36:49.961Z,1.13
2019-01-09T22:39:19.239Z,1.03
2019-01-09T22:41:48.164Z,1.10
2019-01-09T22:44:17.335Z,1.10
2019-01-09T22:46:51.974Z,0.93
2019-01-09T22:49:20.638Z,0.90
2019-01-09T22:51:49.853Z,1.07
2019-01-09T22:54:18.687Z,0.80
2019-01-09T22:56:47.540Z,0.97
2019-01-09T22:59:16.881Z,1.10
2019-01-09T23:01:47.351Z,1.00
2019-01-09T23:04:16.189Z,0.90
2019-01-09T23:06:44.735Z,1.10
2019-01-09T23:09:13.461Z,0.90
2019-01-09T23:11:42.082Z,1.00
2019-01-09T23:14:10.708Z,1.13
2019-01-09T23:16:39.315Z,1.17
2019-01-09T23:19:08.019Z,1.00
2019-01-09T23:21:36.596Z,1.10
2019-01-09T23:24:05.320Z,1.00
2019-01-09T23:26:35.896Z,1.20
2019-01-09T23:29:05.881Z,1.20
2019-01-09T23:31:34.617Z,1.00
2019-01-09T23:34:03.749Z,1.00
2019-01-09T23:36:32.404Z,0.90
2019-01-09T23:39:01.479Z,1.37
2019-01-09T23:41:30.025Z,1.00
2019-01-09T23:43:59.278Z,1.10
2019-01-09T23:46:27.990Z,1.00
2019-01-09T23:48:56.563Z,1.40
2019-01-09T23:51:25.118Z,0.80
2019-01-09T23:53:53.667Z,1.10
2019-01-09T23:56:22.255Z,0.83
2019-01-09T23:58:51.060Z,1.23
